Tiempo atmosférico en la estación meteorológica de Huercal Overa, Almería (295 m.)



Fecha
DESCASC
Temp. máxima en grados centígrados (hora)
DESCASC
Temp. mínima en grados centígrados (hora)
DESCASC
Temp. media en grados centígrados
DESCASC
Racha de viento máxima en m/sg (hora)
DESCASC
Velocidad máxima media en intervalos de 10 minutos(hora)
DESCASC
Precipitaciones diarias en mm
DESCASC
Precipitaciones de 00:00 a 06:00 en mm
DESCASC
Precipitaciones de 06:00 a 12:00 en mm
DESCASC
Precipitaciones de 12:00 a 18:00 en mm
DESCASC
Precipitaciones de 18:00 a 24:00 en mm
DESCASC

Gráficas

Temp. máximas Temp. mínimas Temp. medias Precipitaciones Rachas de viento máximas Velocidades máximas media en intervalos de 10 minutos

Datos horarios

Fecha y hora oficial Temperatura (ºC) Velocidad del viento (km/h) Dirección del viento Racha (km/h) Dirección de racha Precipitación (mm) Presión (hPa) Tendencia (hPa) Humedad (%)
2020-06-01 23:00:00 20.1 3 Noroeste 6 Sudoeste 0 981.4 1.3 46
2020-06-01 22:00:00 21.1 4 Sudoeste 12 Sudoeste 0 980.8 0.8 44
2020-06-01 21:00:00 22.5 6 Sudoeste 13 Sudoeste 0 980.5 0.2 39
2020-06-01 20:00:00 23.4 7 Sudoeste 21 Sudoeste 0 980.1 0.3 38
2020-06-01 19:00:00 23.7 10 Sudoeste 20 Sur 0 980 -0.1 35
2020-06-01 18:00:00 24.1 12 Sur 21 Sudoeste 0 980.3 0.2 35
2020-06-01 17:00:00 24.1 10 Sur 22 Sudoeste 0 979.8 -0.3 40
2020-06-01 16:00:00 24.1 15 Sur 27 Sudoeste 0 980.1 -0.2 37
2020-06-01 15:00:00 25.4 15 Sudoeste 28 Sudoeste 0 980.1 0 36
2020-06-01 14:00:00 25.2 15 Sudoeste 29 Sudoeste 0 980.1 0 30
2020-06-01 13:00:00 25.2 14 Sudoeste 26 Sudoeste 0 980.3 0.6 28
2020-06-01 12:00:00 25.3 6 Sur 18 Sudoeste 0 980.1 0.7 26
2020-06-01 11:00:00 26.5 0 Calma 7 Sudeste 0 980.1 -- 25
2020-06-01 10:00:00 25.2 0 Calma 6 Sudoeste 0 979.7 -- 32
2020-06-01 09:00:00 21.1 0 Calma 6 Oeste 0 979.4 -- 41
2020-06-01 08:00:00 17.1 0 Calma 6 Noroeste 0 980 -- 47
2020-06-01 07:00:00 15.5 5 Noroeste 8 Noroeste 0 980.3 -- 52
2020-06-01 06:00:00 15.6 0 Calma 5 Noroeste 0 979.8 -- 56
2020-06-01 05:00:00 16.3 3 Noroeste 7 Noroeste 0 979.8 -- 51
2020-06-01 04:00:00 16.8 5 Noroeste 7 Noroeste 0 980.1 -- 52
2020-06-01 03:00:00 17.7 0 Calma 5 Noroeste 0 980.1 -- 55
2020-06-01 02:00:00 18 0 Calma 6 Nordeste 0 980.1 -- 53
2020-06-01 01:00:00 19.1 0 Calma 6 Sudoeste 0 979.9 -- 50
2020-06-01 00:00:00 19.4 3 Oeste 8 Norte 0 979.6 -- 52
2020-05-31 23:00:00 20.8 3 Norte 14 Sur 0 978.8 -- 49
2020-05-31 22:00:00 21.5 4 Sudeste 8 Sudeste 0 978 -- 48
2020-05-31 21:00:00 22 0 Calma 15 Oeste 0 978.4 -- 43
2020-05-31 20:00:00 22.8 10 Sudoeste 24 Sur 0 978.4 -- 34
2020-05-31 19:00:00 23.8 13 Sur 26 Sudoeste 0 977.8 -- 30
2020-05-31 18:00:00 24.8 13 Sur 23 Sur 0 977.6 -- 25
2020-05-31 17:00:00 26.7 8 Sudoeste 18 Sur 0 977.3 -- 23
2020-05-31 16:00:00 26.6 8 Este 23 Este 0 976.6 -- 22
2020-05-31 15:00:00 27.5 10 Sudeste 22 Este 0 976.8 -- 20
2020-05-31 14:00:00 26.9 8 Sudeste 21 Nordeste 0 977.5 -- 19
2020-05-31 13:00:00 26.9 10 Este 22 Este 0 977.6 -- 18
2020-05-31 12:00:00 25.9 7 Sudeste 18 Sudeste 0 978.1 -- 18
2020-05-31 11:00:00 24.7 5 Este 12 Sudeste 0 978.2 -- 22
2020-05-31 10:00:00 22 0 Calma 10 Sudoeste 0 978.1 -- 29
2020-05-31 09:00:00 21.5 0 Calma 5 Sudeste 0 978 -- 41
2020-05-31 08:00:00 14.7 0 Calma 4 Sudoeste 0 978.6 -- 61
2020-05-31 07:00:00 13.4 0 Calma 2 Sudoeste 0 978.5 -- 62
2020-05-31 06:00:00 14.2 0 Calma 5 Noroeste 0 978.2 -- 62
2020-05-31 05:00:00 14.3 0 Calma 5 Sudoeste 0 978.9 -- 60
2020-05-31 04:00:00 14.8 0 Calma 6 Noroeste 0 979.2 -- 56
2020-05-31 03:00:00 15.5 0 Calma 6 Noroeste 0 979.5 -- 53
2020-05-31 02:00:00 16.3 4 Nordeste 9 Nordeste 0 980.2 -- 50
2020-05-31 01:00:00 17.2 3 Sudeste 5 Sudeste 0 980.6 -- 47
2020-05-31 00:00:00 17.9 0 Calma 8 Norte 0 980.4 -- 44
2020-05-30 23:00:00 19.3 0 Calma 6 Sudeste 0 980.1 -- 40
2020-05-30 22:00:00 20.6 4 Este 13 Este 0 979.1 -- 34
2020-05-30 21:00:00 22 3 Este 17 Sudoeste 0 978.9 -- 36
2020-05-30 20:00:00 22 10 Sur 22 Sudoeste 0 978.6 -- 50
2020-05-30 19:00:00 22.1 14 Sudoeste 27 Sudoeste 0 978.6 -- 54
2020-05-30 18:00:00 24.4 15 Sudoeste 27 Sudoeste 0 978.5 -- 46
2020-05-30 17:00:00 24.9 14 Sudoeste 28 Sudoeste 0 978.7 -- 40
2020-05-30 16:00:00 23.2 15 Sudoeste 27 Sudoeste 0 979.3 -- 42
2020-05-30 15:00:00 24.4 16 Sudoeste 28 Sudoeste 0 979.9 -- 33
2020-05-30 14:00:00 23.1 14 Sur 27 Sur 0 980.2 -- 30
2020-05-30 13:00:00 23.3 11 Sur 26 Sur 0 980.8 -- 27
2020-05-30 12:00:00 23.9 10 Sudoeste 19 Sudoeste 0 981 -- 18
2020-05-30 11:00:00 23.8 5 Sudeste 15 Sudeste 0 981.1 -- 22
2020-05-30 10:00:00 22.5 3 Sudeste 10 Este 0 980.8 -- 32
2020-05-30 09:00:00 19.7 3 Este 10 Nordeste 0 980.6 -- 40
2020-05-30 08:00:00 17 0 Calma 6 Noroeste 0 981.1 -- 49
2020-05-30 07:00:00 13.5 0 Calma 9 Nordeste 0 980.9 -- 58
2020-05-30 06:00:00 14.4 4 Este 9 Nordeste 0 980.7 -- 57
2020-05-30 05:00:00 14.8 3 Norte 8 Este 0 980.8 -- 60
2020-05-30 04:00:00 15.5 0 Calma 6 Este 0 981 -- 59
2020-05-30 03:00:00 16.3 0 Calma 5 Nordeste 0 981.1 -- 57
2020-05-30 02:00:00 16.5 0 Calma 5 Sudoeste 0 981.2 -- 54
2020-05-30 01:00:00 17.9 0 Calma 4 Noroeste 0 981.2 -- 49
2020-05-30 00:00:00 18 2 Oeste 6 Oeste 0 981.2 -- 46
2020-05-29 23:00:00 18.8 4 Sudoeste 12 Sudoeste 0 980.6 -- 45
2020-05-29 22:00:00 19.5 9 Sudoeste 18 Sudoeste 0 979.6 -- 40
2020-05-29 21:00:00 21.4 12 Sudoeste 19 Sudoeste 0 978.7 -- 37
2020-05-29 20:00:00 23.1 10 Sudoeste 21 Sudoeste 0 978.1 -- 33
2020-05-29 19:00:00 24.4 13 Sudoeste 27 Sudoeste 0 978 -- 32
2020-05-29 18:00:00 25.4 15 Sudoeste 25 Sur 0 978.2 -- 30
2020-05-29 17:00:00 26.3 5 Sur 21 Sur 0 978.7 -- 28
2020-05-29 16:00:00 27.5 6 Sudeste 23 Sudeste 0 979.1 -- 24
2020-05-29 15:00:00 27.1 8 Este 22 Sudeste 0 979.6 -- 24
2020-05-29 14:00:00 27.6 6 Este 19 Este 0 980.4 -- 21
2020-05-29 13:00:00 26.2 6 Este 23 Este 0 981.2 -- 24
2020-05-29 12:00:00 25.1 7 Sudeste 23 Este 0 981.8 -- 25
2020-05-29 11:00:00 23.4 7 Este 18 Este 0 981.9 -- 25
2020-05-29 10:00:00 23.8 3 Este 9 Este 0 982.1 -- 28
2020-05-29 09:00:00 20.9 2 Noroeste 5 Noroeste 0 982.5 -- 34
2020-05-29 08:00:00 17.6 0 Calma 4 Nordeste 0 983.1 -- 38
2020-05-29 07:00:00 15.1 0 Calma 6 Oeste 0 983.1 -- 40
2020-05-29 06:00:00 15.1 2 Oeste 6 Noroeste 0 983.2 -- 39
2020-05-29 05:00:00 15.8 0 Calma 7 Noroeste 0 983.7 -- 39
2020-05-29 04:00:00 16.7 4 Noroeste 8 Noroeste 0 984.3 -- 38
2020-05-29 03:00:00 16.7 4 Noroeste 8 Norte 0 984.9 -- 40
2020-05-29 02:00:00 18.3 0 Calma 10 Este 0 985.2 -- 38
2020-05-29 01:00:00 18.7 5 Este 15 Este 0 985.8 -- 37
2020-05-29 00:00:00 19.2 3 Este 19 Nordeste 0 986.3 -- 33
2020-05-28 23:00:00 20.1 4 Este 15 Sudeste 0 986.1 -- 31
2020-05-28 22:00:00 21.4 7 Este 23 Este 0 985.4 -- 27
2020-05-28 21:00:00 23.1 8 Este 26 Sudeste 0 984.8 0.3 25
2020-05-28 20:00:00 24.8 7 Este 31 Este 0 984 -0.6 24
2020-05-28 19:00:00 24.6 13 Este 34 Este 0 983.8 -1.1 24
2020-05-28 18:00:00 25.6 13 Este 35 Este 0 984.5 -- 24
2020-05-28 17:00:00 25.1 10 Este 35 Nordeste 0 984.6 -- 25
2020-05-28 16:00:00 25.3 11 Nordeste 36 Nordeste 0 984.9 -- 27
2020-05-28 15:00:00 23.8 10 Este 37 Este 0 985.9 -- 29
2020-05-28 14:00:00 25.2 8 Este 28 Nordeste 0 986.6 -- 30
2020-05-28 13:00:00 23.8 10 Este 28 Nordeste 0 987.1 -- 33
2020-05-28 12:00:00 23.8 8 Este 30 Nordeste 0 987.3 -- 32
2020-05-28 11:00:00 22.8 8 Nordeste 30 Sudeste 0 987.5 -- 32
2020-05-28 10:00:00 21.9 9 Este 29 Nordeste 0 987.7 -- 34
2020-05-28 09:00:00 20.7 6 Este 26 Nordeste 0 987.6 -- 36
2020-05-28 08:00:00 18.9 0 Calma 11 Sudoeste 0 987.8 -- 43
2020-05-28 07:00:00 17 0 Calma 8 Sudoeste 0 988.3 -- 47
2020-05-28 06:00:00 17 0 Calma 14 Nordeste 0 988.2 -- 48
2020-05-28 05:00:00 18.2 4 Nordeste 17 Este 0 988.3 -- 47
2020-05-28 04:00:00 18 6 Este 19 Este 0 988.5 -- 53
2020-05-28 03:00:00 17.8 2 Este 10 Sudeste 0 988.8 -- 60
2020-05-28 02:00:00 17.8 2 Este 22 Nordeste 0 989.4 -- 71
2020-05-28 01:00:00 18.3 6 Este 24 Norte 0 989.6 -- 71
2020-05-28 00:00:00 18.8 7 Este 19 Este 0 989.8 -- 59
2020-05-27 23:00:00 20.5 4 Este 15 Este 0 989.4 -- 54
2020-05-27 22:00:00 21.2 6 Este 18 Sudeste 0 988.1 -- 49
2020-05-27 21:00:00 23.1 6 Sudeste 22 Sudeste 0 987.3 -- 40
2020-05-27 20:00:00 24.4 9 Sudeste 30 Sudeste 0 986.3 -- 34
2020-05-27 19:00:00 26.9 9 Este 37 Este 0 985.7 -- 27
2020-05-27 18:00:00 26.6 15 Este 36 Este 0 986 -- 24
2020-05-27 17:00:00 28 10 Este 33 Este 0 986.4 -- 24
2020-05-27 16:00:00 26.5 12 Este 33 Este 0 986.6 -- 27
2020-05-27 15:00:00 27.2 12 Sudeste 33 Este 0 986.8 -- 30
2020-05-27 14:00:00 25.8 15 Sudeste 35 Este 0 987.8 -- 30
2020-05-27 13:00:00 26.1 10 Sudeste 33 Este 0 988.6 -- 30
2020-05-27 12:00:00 25.5 10 Este 33 Este 0 989 -- 31
2020-05-27 11:00:00 23.9 9 Este 29 Nordeste 0 988.3 -- 33
2020-05-27 10:00:00 22.8 10 Este 29 Nordeste 0 988.3 -- 34
2020-05-27 09:00:00 21.7 0 Calma 10 Nordeste 0 988.4 -- 41
2020-05-27 08:00:00 17.3 3 Noroeste 6 Noroeste 0 989 -- 54
2020-05-27 07:00:00 16.7 0 Calma 6 Norte 0 988.8 -- 57
2020-05-27 06:00:00 17.4 3 Norte 6 Norte 0 988.8 -- 55
2020-05-27 05:00:00 17.3 0 Calma 6 Noroeste 0 988.6 -- 54
2020-05-27 04:00:00 17.4 3 Oeste 9 Noroeste 0 988.4 -- 55
2020-05-27 03:00:00 18.7 6 Norte 11 Norte 0 988.6 -- 52
2020-05-27 02:00:00 18.5 3 Norte 11 Norte 0 989.2 -- 52
2020-05-27 01:00:00 18.6 4 Nordeste 21 Nordeste 0 989.5 -- 61
2020-05-27 00:00:00 19.2 7 Este 28 Nordeste 0 989.6 -- 61
2020-05-26 23:00:00 19.9 9 Este 22 Sudeste 0 989.4 -- 58
2020-05-26 22:00:00 21 8 Este 27 Este 0 988.4 -- 52
2020-05-26 21:00:00 21.9 4 Sudeste 17 Este 0 987.6 -- 54
2020-05-26 20:00:00 23.3 8 Sudeste 19 Este 0 987 -- 49
2020-05-26 19:00:00 24.6 5 Sur 22 Este 0 986.6 -- 46
2020-05-26 18:00:00 24.5 10 Sudeste 25 Sudeste 0 986.7 -- 44
2020-05-26 17:00:00 26.2 8 Sudeste 27 Este 0 986.9 -- 40
2020-05-26 16:00:00 25.8 8 Sudeste 23 Este 0 987.1 -- 38
2020-05-26 15:00:00 26.2 6 Sudeste 24 Este 0 987.5 -- 36
2020-05-26 14:00:00 26 6 Sudeste 23 Este 0 987.9 -- 33
2020-05-26 13:00:00 25.8 8 Este 25 Sudeste 0 988.3 -- 31
2020-05-26 12:00:00 25.7 6 Este 26 Este 0 988.5 -- 32
2020-05-26 11:00:00 23.3 7 Este 21 Este 0 989.1 -- 35
2020-05-26 10:00:00 22.5 8 Este 21 Nordeste 0 989.1 -- 36
2020-05-26 09:00:00 22.2 0 Calma 4 Nordeste 0 989 -- 37
2020-05-26 08:00:00 17.6 0 Calma 4 Oeste 0 990 -- 49
2020-05-26 07:00:00 16.9 2 Noroeste 6 Noroeste 0 989.6 -- 51
2020-05-26 06:00:00 16.6 3 Noroeste 8 Oeste 0 989.3 -- 54
2020-05-26 05:00:00 16.8 4 Noroeste 7 Noroeste 0 989.3 -- 52
2020-05-26 04:00:00 17.9 0 Calma 12 Nordeste 0 989.5 -- 46
2020-05-26 03:00:00 17.8 4 Este 19 Este 0 989.6 -- 51
2020-05-26 02:00:00 18 3 Este 13 Sudeste 0 989.8 -- 51
2020-05-26 01:00:00 18 2 Este 7 Nordeste 0 989.6 -- 53
2020-05-26 00:00:00 18.3 0 Calma 5 Sudoeste 0 989.5 -- 48
2020-05-25 23:00:00 18.6 4 Sudoeste 10 Noroeste 0 989.5 -- 48
2020-05-25 22:00:00 19.6 5 Oeste 12 Sudoeste 0 989.3 -- 46
2020-05-25 21:00:00 20 7 Sudoeste 15 Sudoeste 0 989.2 -- 44
2020-05-25 20:00:00 21.8 9 Sudoeste 22 Sudoeste 0 988.3 -- 40
2020-05-25 19:00:00 24.2 8 Sur 27 Sudeste 0 987.8 -- 33
2020-05-25 18:00:00 25.1 8 Sudeste 24 Sudeste 0 988.1 -- 33
2020-05-25 17:00:00 26.7 9 Sudeste 26 Sur 0 988.4 -- 29
2020-05-25 16:00:00 25.8 9 Sudeste 24 Sudeste 0 988.6 -- 28
2020-05-25 15:00:00 26.5 7 Este 24 Este 0 988.4 -- 25
2020-05-25 14:00:00 25.7 8 Sudeste 26 Este 0 989.2 -- 25
2020-05-25 13:00:00 24.8 10 Este 27 Este 0 989.7 -- 27
2020-05-25 12:00:00 23.8 11 Sudeste 22 Este 0 990 -- 32
2020-05-25 11:00:00 22.6 6 Este 18 Este 0 989.5 -- 36
2020-05-25 10:00:00 20.6 5 Este 12 Sudeste 0 990.6 -- 43
2020-05-25 09:00:00 19.4 0 Calma 0 Calma 0 990.3 -- 52
2020-05-25 08:00:00 16.4 0 Calma 3 Noroeste 0 990.6 -- 53
2020-05-25 07:00:00 15.4 0 Calma 5 Oeste 0 990 -- 56
2020-05-25 06:00:00 15.2 0 Calma 7 Oeste 0 989.8 -- 59
2020-05-25 05:00:00 14.9 0 Calma 4 Noroeste 0 990.3 -- 74
2020-05-25 04:00:00 16.6 0 Calma 2 Nordeste 0 990.3 -- 69
2020-05-25 03:00:00 17.4 0 Calma 7 Noroeste 0 990.5 -- 64
2020-05-25 02:00:00 17.6 0 Calma 10 Sudeste 0 990.9 -- 61
2020-05-25 01:00:00 18.6 4 Este 15 Nordeste 0 991.1 -- 57
2020-05-25 00:00:00 19.3 6 Este 17 Este 0 991.2 -- 53
2020-05-24 23:00:00 18.8 0 Calma 9 Sudoeste 0 991.2 -- 71
2020-05-24 22:00:00 19.3 4 Sudoeste 16 Sudoeste 0 990.8 -- 66
2020-05-24 21:00:00 20.8 7 Sudoeste 14 Sur 0 990.2 -- 53
2020-05-24 20:00:00 22.8 5 Sur 17 Sur 0 989.8 -- 46
2020-05-24 19:00:00 24.4 5 Sur 19 Sur 0 989.4 -- 41
2020-05-24 18:00:00 25.6 5 Sur 23 Sudeste 0 989 -- 36
2020-05-24 17:00:00 27.2 6 Sudeste 21 Este 0 989.2 -- 34
2020-05-24 16:00:00 26.9 6 Sudeste 25 Este 0 989.5 -- 33
2020-05-24 15:00:00 26.8 7 Sudeste 23 Sudeste 0 989.8 -- 30
2020-05-24 14:00:00 27.2 6 Sudeste 26 Este 0 990.3 -- 29
2020-05-24 13:00:00 25.4 11 Este 26 Sudeste 0 990.8 -- 30
2020-05-24 12:00:00 25.3 9 Este 26 Este 0 991.1 -- 28
2020-05-24 11:00:00 24.3 10 Este 31 Este 0 990.7 -- 30
2020-05-24 10:00:00 22.9 13 Este 35 Este 0 990.8 -- 34
2020-05-24 09:00:00 21.9 8 Este 22 Este 0 991 -- 37
2020-05-24 08:00:00 18.7 5 Noroeste 12 Noroeste 0 990.8 -- 45
2020-05-24 07:00:00 18.8 3 Nordeste 17 Nordeste 0 990.5 -- 42
2020-05-24 06:00:00 19.5 4 Este 18 Este 0 990 -- 42
2020-05-24 05:00:00 19.8 6 Este 16 Sudeste 0 989.7 -- 45
2020-05-24 04:00:00 19.7 2 Nordeste 8 Sur 0 989.6 -- 46
2020-05-24 03:00:00 20.1 0 Calma 9 Este 0 989.6 -- 45
2020-05-24 02:00:00 20.6 3 Nordeste 7 Nordeste 0 989.4 -- 44
2020-05-24 01:00:00 20.8 2 Nordeste 6 Nordeste 0 989.6 -- 43
2020-05-24 00:00:00 21.6 0 Calma 5 Oeste 0 989.5 -- 39
2020-05-23 23:00:00 22.5 0 Calma 6 Noroeste 0 989.3 -- 35
2020-05-23 22:00:00 23 4 Sudoeste 8 Sur 0 988.6 -- 33
2020-05-23 21:00:00 24.4 4 Sudoeste 20 Sudoeste 0 987.8 -- 28
2020-05-23 20:00:00 25.3 11 Sudoeste 21 Sudoeste 0 987.3 -- 27
2020-05-23 19:00:00 26.5 13 Sur 23 Sudoeste 0 987.2 -- 24
2020-05-23 18:00:00 28.4 13 Sur 26 Sur 0 987.3 -- 21
2020-05-23 17:00:00 29 14 Sur 24 Sur 0 987.8 -- 21
2020-05-23 16:00:00 29 13 Sur 33 Sudoeste 0 987.9 -- 20
2020-05-23 15:00:00 28.8 16 Sudoeste 28 Sudoeste 0 988.5 -- 19
2020-05-23 14:00:00 29 15 Sudoeste 31 Oeste 0 989.1 -- 20
2020-05-23 13:00:00 29.3 11 Sur 20 Sudoeste 0 990 -- 19
2020-05-23 12:00:00 29.4 3 Sudeste 12 Sudeste 0 990.2 -- 19
2020-05-23 11:00:00 28 3 Este 10 Este 0 990.1 -- 20
2020-05-23 10:00:00 26.7 0 Calma 6 Nordeste 0 989.7 -- 30
2020-05-23 09:00:00 23.3 0 Calma 0 Calma 0 989.3 -- 40
2020-05-23 08:00:00 20.3 0 Calma -- -- 0 989.6 -- 59
2020-05-23 07:00:00 16.9 0 Calma 4 Este 0 989.6 -- 72
2020-05-23 06:00:00 17.3 0 Calma -- -- 0 989.5 -- 71
2020-05-23 05:00:00 17.9 0 Calma 2 Noroeste 0 989.6 -- 68
2020-05-23 04:00:00 18.4 0 Calma 3 Noroeste 0 989.5 -- 68
2020-05-23 03:00:00 18.7 0 Calma -- -- 0 989.8 -- 66
2020-05-23 02:00:00 19.5 0 Calma 6 Norte 0 990 -- 64
2020-05-23 01:00:00 19.6 0 Calma 5 Noroeste 0 990 -- 64
2020-05-23 00:00:00 20 0 Calma 6 Oeste 0 989.9 -- 61
2020-05-22 23:00:00 20.8 0 Calma 6 Sudoeste 0 989.4 -- 55
2020-05-22 22:00:00 21.3 4 Sudoeste 9 Sur 0 988.6 -- 51
2020-05-22 21:00:00 23.6 5 Sudoeste 14 Sudoeste 0 988.1 -- 40
2020-05-22 20:00:00 25.6 8 Sur 19 Sudoeste 0 987.5 -- 37
2020-05-22 19:00:00 26.5 12 Sudoeste 23 Sudoeste 0 987.1 -- 37
2020-05-22 18:00:00 27.4 13 Sur 24 Sudoeste 0 987 -- 34
2020-05-22 17:00:00 28.3 18 Sudoeste 29 Sudoeste 0 986.9 -- 30
2020-05-22 16:00:00 29.5 14 Sudoeste 27 Sudoeste 0 987.2 -- 30
2020-05-22 15:00:00 28.9 13 Sur 25 Sudoeste 0 987.4 -- 30
2020-05-22 14:00:00 28.8 13 Sur 22 Sudoeste 0 987.6 -- 33
2020-05-22 13:00:00 28.6 10 Sudoeste 18 Sudoeste 0 987.5 -- 36
2020-05-22 12:00:00 28.1 6 Sur 15 Sudoeste 0 987.7 -- 33
2020-05-22 11:00:00 27.7 3 Sur 8 Sur 0 987.6 -- 33
2020-05-22 10:00:00 26.3 0 Calma 8 Este 0 986.8 -- 39
2020-05-22 09:00:00 22.6 0 Calma -- -- 0 986.5 -- 47
2020-05-22 08:00:00 20.8 0 Calma 2 Norte 0 986.7 -- 59
2020-05-22 07:00:00 17.5 0 Calma 5 Este 0 986.7 -- 73
2020-05-22 06:00:00 17.9 0 Calma 3 Noroeste 0 986.3 -- 72
2020-05-22 05:00:00 18.1 0 Calma 4 Noroeste 0 986 -- 71
2020-05-22 04:00:00 19 0 Calma 4 Noroeste 0 986.1 -- 65
2020-05-22 03:00:00 19.4 0 Calma 5 Noroeste 0 986.5 -- 62
2020-05-22 02:00:00 19.9 0 Calma 5 Sudoeste 0 986.7 -- 59
2020-05-22 01:00:00 20.5 0 Calma 4 Sudoeste 0 986.9 -- 57
2020-05-22 00:00:00 21 2 Oeste 6 Noroeste 0 986.9 2.1 55
2020-05-21 23:00:00 21.4 0 Calma 7 Sudoeste 0 986.6 -- 52
2020-05-21 22:00:00 22.5 7 Sudoeste 13 Sudoeste 0 985.7 -- 47
2020-05-21 21:00:00 23.5 8 Sudoeste 14 Sur 0 984.8 -- 44
2020-05-21 20:00:00 26.5 8 Sudoeste 19 Sudoeste 0 984 -- 39
2020-05-21 19:00:00 26.9 11 Sudoeste 21 Sur 0 983.7 -- 35
2020-05-21 18:00:00 28.2 12 Sudoeste 28 Sudoeste 0 983.7 -- 33
2020-05-21 17:00:00 28.2 10 Sudoeste 24 Oeste 0 983.7 -- 33
2020-05-21 16:00:00 28.7 15 Sudoeste 28 Sudoeste 0 983.7 -- 33
2020-05-21 15:00:00 27.1 13 Sudoeste 26 Sudoeste 0 984 -- 39
2020-05-21 14:00:00 26.9 15 Sur 25 Sur 0 984.1 -- 34
2020-05-21 13:00:00 28.1 11 Sur 22 Sudoeste 0 984.4 0.5 31
2020-05-21 12:00:00 29.3 7 Sudeste 18 Este 0 984.6 -- 27
2020-05-21 11:00:00 26.8 8 Este 18 Este 0 984.4 -- 30
2020-05-21 10:00:00 25.2 5 Este 10 Este 0 983.9 -- 36
2020-05-21 09:00:00 22.6 4 Sudeste 8 Sudeste 0 983.5 -- 44
2020-05-21 08:00:00 20.3 0 Calma 7 Nordeste 0 983.2 -- 50
2020-05-21 07:00:00 17.6 2 Este 7 Este 0 982.9 -- 57
2020-05-21 06:00:00 18.6 2 Este 8 Noroeste 0 982.3 -- 52
2020-05-21 05:00:00 18.1 3 Este 7 Este 0 981.9 -- 58
2020-05-21 04:00:00 19.2 0 Calma 4 Este 0 981.6 -- 46
2020-05-21 03:00:00 19.7 0 Calma 5 Sur 0 981.9 -- 52
2020-05-21 02:00:00 19.6 0 Calma 4 Noroeste 0 982.2 -- 49
2020-05-21 01:00:00 20.8 2 Noroeste 6 Noroeste 0 982.4 -- 42
2020-05-21 00:00:00 22 3 Noroeste 7 Noroeste 0 982 -- 37
2020-05-20 23:00:00 23.5 3 Nordeste 8 Nordeste 0 981.6 -- 31
2020-05-20 22:00:00 24.7 3 Este 10 Este 0 980.7 -- 27
2020-05-20 21:00:00 27.5 2 Sudeste 19 Sur 0 979.8 -- 21
2020-05-20 20:00:00 28.6 8 Sur 22 Sudoeste 0 979.3 -- 21
2020-05-20 19:00:00 29.2 12 Sur 26 Oeste 0 978.9 -- 21
2020-05-20 18:00:00 29.9 14 Sudoeste 27 Sudoeste 0 979.1 -- 21
2020-05-20 17:00:00 29.8 13 Sur 32 Sudoeste 0 978.8 -- 21
2020-05-20 16:00:00 28.9 15 Sudoeste 28 Sudoeste 0 979.5 -- 21
2020-05-20 15:00:00 29.1 16 Sudoeste 31 Sudoeste 0 979.6 -- 22
2020-05-20 14:00:00 29 17 Sudoeste 26 Sudoeste 0 980.1 -- 26
2020-05-20 13:00:00 29.1 15 Sudoeste 25 Sudoeste 0 980.3 -- 24
2020-05-20 12:00:00 30.8 4 Sudeste 9 Sudeste 0 981 -- 19
2020-05-20 11:00:00 29.9 0 Calma 7 Este 0 980.5 -- 24
2020-05-20 10:00:00 25.9 2 Este 7 Este 0 980.6 -- 29
2020-05-20 09:00:00 23.5 0 Calma -- -- 0 980.2 -- 36
2020-05-20 08:00:00 18.8 0 Calma 6 Este 0 980.8 -- 61
2020-05-20 07:00:00 16.4 0 Calma 5 Este 0 980.8 -- 71
2020-05-20 06:00:00 16.9 0 Calma 3 Sudoeste 0 980.7 -- 68
2020-05-20 05:00:00 17.6 0 Calma 4 Nordeste 0 980.9 -- 65
2020-05-20 04:00:00 17.9 0 Calma 6 Noroeste 0 981.3 -- 60
2020-05-20 03:00:00 18 3 Noroeste 5 Oeste 0 981.8 -- 59
2020-05-20 02:00:00 18.9 0 Calma 9 Este 0 982.1 -- 56
2020-05-20 01:00:00 20 0 Calma 4 Este 0 982 -- 48
2020-05-20 00:00:00 21.1 0 Calma 7 Oeste 0 982.3 -- 43
2020-05-19 23:00:00 21.7 0 Calma 5 Nordeste 0 982 -- 40
2020-05-19 22:00:00 23.4 4 Nordeste 8 Nordeste 0 981.4 -- 34
2020-05-19 21:00:00 26.2 2 Este 18 Sur 0 980.8 -- 26
2020-05-19 20:00:00 27.2 10 Sur 22 Sur 0 980.4 -- 22
2020-05-19 19:00:00 28.2 11 Sur 30 Sudoeste 0 980.3 -- 21
2020-05-19 18:00:00 28.4 13 Sur 27 Sur 0 980.6 -- 22
2020-05-19 17:00:00 27.8 12 Sur 29 Sudoeste 0 981.1 -- 24
2020-05-19 16:00:00 26.6 13 Sudoeste 27 Sudoeste 0 981.7 -- 26
2020-05-19 15:00:00 26.2 14 Sudoeste 28 Sudoeste 0 982.4 -- 26
2020-05-19 14:00:00 25.5 13 Sudoeste 30 Sudoeste 0 982.9 -- 29
2020-05-19 13:00:00 24.9 16 Sudoeste 24 Sur 0 983.4 -- 30
2020-05-19 12:00:00 24.8 13 Sur 21 Sur 0 984.1 -- 29
2020-05-19 11:00:00 25.8 3 Sudeste 10 Sudeste 0 983.7 -- 27
2020-05-19 10:00:00 24.2 2 Sudeste 8 Este 0 983.5 -- 33
2020-05-19 09:00:00 20.7 2 Este 8 Nordeste 0 983.3 -- 44
2020-05-19 08:00:00 17.1 0 Calma 8 Nordeste 0 983.7 -- 59
2020-05-19 07:00:00 14.6 0 Calma 5 Nordeste 0 983.7 -- 73
2020-05-19 06:00:00 15 3 Este 12 Este 0 983.6 -- 69
2020-05-19 05:00:00 16 4 Este 9 Este 0 983.8 -- 64
2020-05-19 04:00:00 16.1 0 Calma 8 Nordeste 0 984.2 -- 66
2020-05-19 03:00:00 17.1 0 Calma 5 Noroeste 0 984.6 -- 57
2020-05-19 02:00:00 17.9 0 Calma 6 Sudoeste 0 985 -- 49
2020-05-19 01:00:00 17.8 3 Oeste 4 Oeste 0 985.3 -- 49
2020-05-19 00:00:00 18.8 2 Oeste 8 Noroeste 0 985.5 -- 45
2020-05-18 23:00:00 20.2 4 Este 13 Nordeste 0 985.2 -- 37
2020-05-18 22:00:00 21.2 7 Nordeste 13 Nordeste 0 984.7 -- 34
2020-05-18 21:00:00 23.4 7 Sur 18 Sur 0 984.1 -- 24
2020-05-18 20:00:00 24.6 11 Sur 23 Sudoeste 0 983.8 -- 24
2020-05-18 19:00:00 24.8 11 Sur 27 Sur 0 983.6 -- 24
2020-05-18 18:00:00 26 9 Sur 25 Sur 0 983.6 -- 24
2020-05-18 17:00:00 25.4 13 Sur 30 Sudoeste 0 983.8 -- 24
2020-05-18 16:00:00 25.3 9 Sur 23 Sur 0 984.2 -- 24
2020-05-18 15:00:00 24.4 12 Sur 29 Sudoeste 0 984.8 -- 27
2020-05-18 14:00:00 24.4 13 Sudoeste 24 Sudoeste 0 985.2 -- 27
2020-05-18 13:00:00 23.3 13 Sudoeste 23 Sudoeste 0 985.7 -- 27
2020-05-18 12:00:00 24.4 6 Sudeste 14 Este 0 986.5 -- 24
2020-05-18 11:00:00 24.3 0 Calma 7 Sur 0 986.5 -- 27
2020-05-18 10:00:00 21.4 2 Sudeste 6 Sudeste 0 986.5 -- 40
2020-05-18 09:00:00 17.7 0 Calma 6 Este 0 986.9 -- 56
2020-05-18 08:00:00 14.9 0 Calma -- -- 0 986.9 -- 78
2020-05-18 07:00:00 11.7 0 Calma -- -- 0 986.8 -- 82
2020-05-18 06:00:00 11.9 0 Calma 5 Nordeste 0 986.6 -- 82
2020-05-18 05:00:00 12.3 0 Calma 5 Noroeste 0 986.7 -- 82
2020-05-18 04:00:00 12.2 0 Calma 8 Nordeste 0 986.8 -- 82
2020-05-18 03:00:00 13.4 0 Calma 4 Sudeste 0 987.2 -- 81
2020-05-18 02:00:00 13.5 0 Calma 4 Nordeste 0 987.8 -- 81
2020-05-18 01:00:00 14.6 0 Calma 4 Nordeste 0 988.1 -- 78
2020-05-18 00:00:00 15.7 2 Nordeste 5 Norte 0 987.9 -- 72
2020-05-17 23:00:00 16 0 Calma 10 Nordeste 0 988.1 -- 65
2020-05-17 22:00:00 16.7 0 Calma 7 Norte 0 987.4 -- 60
2020-05-17 21:00:00 17.2 5 Sudoeste 11 Sur 0 986.8 -- 58
2020-05-17 20:00:00 18.5 5 Sudeste 14 Sudoeste 0 986 -- 54
2020-05-17 19:00:00 19.5 8 Sudoeste 16 Sudeste 0 985.7 -- 47
2020-05-17 18:00:00 19.2 6 Sur 21 Sur 0 985.6 -- 60
2020-05-17 17:00:00 21 8 Sudoeste 26 Oeste 0 985.6 -- 42
2020-05-17 16:00:00 19.8 12 Sudoeste 27 Sudoeste 0 985.7 -- 43
2020-05-17 15:00:00 20 4 Sudeste 17 Sur 0 986.4 -- 43
2020-05-17 14:00:00 19.5 8 Sudeste 17 Sudeste 0 986.4 -- 53
2020-05-17 13:00:00 17.1 6 Sudeste 15 Sudeste 0 986.8 -- 57
2020-05-17 12:00:00 17 7 Sur 14 Sur 0 986.5 -- 51
2020-05-17 11:00:00 17.8 6 Sur 17 Este 0 986.6 -- 49
2020-05-17 10:00:00 18.2 7 Este 15 Este 0 986.1 -- 52
2020-05-17 09:00:00 16.9 0 Calma 5 Sudeste 0 985.7 -- 62
2020-05-17 08:00:00 14 0 Calma -- -- 0 985.1 -- 82
2020-05-17 07:00:00 12.2 0 Calma -- -- 0 984.5 -- 83
2020-05-17 06:00:00 12.5 0 Calma 5 Nordeste 0 984.4 -- 83
2020-05-17 05:00:00 12.5 0 Calma -- -- 0 984.2 -- 83
2020-05-17 04:00:00 12.6 0 Calma 5 Noroeste 0 984.3 -- 83
2020-05-17 03:00:00 13.1 0 Calma 4 Noroeste 0 984.5 -- 83
2020-05-17 02:00:00 13.6 0 Calma 3 Este 0 985 -- 82
2020-05-17 01:00:00 14 0 Calma 4 Sudoeste 0 985.1 -- 82
2020-05-17 00:00:00 14.6 0 Calma 5 Noroeste 0 985.1 -- 82
2020-05-16 23:00:00 14.8 3 Sudoeste 7 Oeste 0 984.7 -- 81
2020-05-16 22:00:00 15.1 0 Calma 7 Oeste 0 984.1 -- 80
2020-05-16 21:00:00 15.5 3 Oeste 10 Noroeste 0 983.3 -- 80
2020-05-16 20:00:00 16.1 2 Oeste 8 Noroeste 0 982.7 -- 79
2020-05-16 19:00:00 15.5 0 Calma 17 Norte 0.4 982.2 -- 81
2020-05-16 18:00:00 15.3 8 Nordeste 35 Nordeste 0 981.8 -- 76
2020-05-16 17:00:00 18.1 8 Norte 20 Sur 0.2 980.7 -- 53
2020-05-16 16:00:00 21.4 7 Sudoeste 19 Sudoeste 0 980.3 -- 31
2020-05-16 15:00:00 19.6 7 Sur 21 Sur 0 980.5 -- 38
2020-05-16 14:00:00 20 8 Sur 18 Sudoeste 0 981 -- 33
2020-05-16 13:00:00 20.1 4 Sudeste 15 Sudeste 0 981 -- 32
2020-05-16 12:00:00 20.4 4 Sudeste 13 Sudeste 0 980.6 -- 35
2020-05-16 11:00:00 18.8 4 Sudoeste 8 Sudoeste 0 980.3 -- 46
2020-05-16 10:00:00 17.1 0 Calma 9 Sudoeste 0 981.1 -- 52
2020-05-16 09:00:00 15.8 0 Calma 6 Sur 0 980.1 -- 64
2020-05-16 08:00:00 12.2 3 Oeste 7 Noroeste 0 979.9 -- 79
2020-05-16 07:00:00 11.1 0 Calma -- -- 0 979.4 -- 82
2020-05-16 06:00:00 11.3 0 Calma 6 Oeste 0 978.9 -- 82
2020-05-16 05:00:00 11.8 0 Calma 5 Noroeste 0 979 -- 81
2020-05-16 04:00:00 12 0 Calma 7 Noroeste 0 979.3 -- 81
2020-05-16 03:00:00 12 0 Calma -- -- 0 979.6 -- 82
2020-05-16 02:00:00 12.7 0 Calma 3 Noroeste 0 980 -- 81
2020-05-16 01:00:00 12.8 0 Calma 4 Este 0 979.9 -- 80
2020-05-16 00:00:00 12.8 3 Oeste 6 Noroeste 0 980.1 -- 77
2020-05-15 23:00:00 13.1 5 Noroeste 8 Este 0 979.6 -- 77
2020-05-15 22:00:00 13.5 3 Este 12 Este 0 978.7 -- 74
2020-05-15 21:00:00 13.6 4 Este 13 Este 0.1 978.2 -- 78
2020-05-15 20:00:00 13.5 5 Este 23 Nordeste 1.5 977.9 -- 81
2020-05-15 19:00:00 13.9 10 Este 33 Nordeste 0.4 977.8 -- 73
2020-05-15 18:00:00 17.5 9 Nordeste 18 Este 0 977.1 -- 49
2020-05-15 17:00:00 18.2 2 Nordeste 13 Nordeste 0 977.2 -- 47
2020-05-15 16:00:00 17 4 Este 14 Nordeste 0 977.6 -- 54
2020-05-15 15:00:00 17.8 2 Sudeste 10 Noroeste 0 977.5 -- 62
2020-05-15 14:00:00 15.6 4 Noroeste 14 Noroeste 0 977.8 -- 72
2020-05-15 13:00:00 14.7 8 Oeste 13 Noroeste 0.1 977.9 -- 72
2020-05-15 12:00:00 15 4 Sudoeste 8 Sudoeste 0.1 977.9 -- 61
2020-05-15 11:00:00 16.9 0 Calma 6 Nordeste 0 977.7 -- 50
2020-05-15 10:00:00 15.3 0 Calma 6 Sudoeste 0 977.5 -- 60
2020-05-15 09:00:00 14.6 0 Calma 5 Oeste 0 977.4 -- 65
2020-05-15 08:00:00 12.6 3 Noroeste 8 Nordeste 0 977 -- 76
2020-05-15 07:00:00 13 4 Nordeste 6 Nordeste 0.2 976.4 -- 63
2020-05-15 06:00:00 13.7 3 Sudoeste 11 Este 0 976.3 -- 53
2020-05-15 05:00:00 14.1 4 Este 11 Sur 0 974.5 -- 53
2020-05-15 04:00:00 14.3 3 Sudeste 11 Sur 0 974.9 -- 54
2020-05-15 03:00:00 13.9 0 Calma 7 Noroeste 0 975.2 -- 56
2020-05-15 02:00:00 13.9 0 Calma 8 Oeste 0 975.7 -- 59
2020-05-15 01:00:00 14.2 0 Calma 8 Noroeste 0 975.2 -- 56
2020-05-15 00:00:00 14.3 5 Noroeste 9 Noroeste 0 975.6 -- 59
2020-05-14 23:00:00 15.8 0 Calma 8 Noroeste 0 975.2 -- 52
2020-05-14 22:00:00 16.8 4 Nordeste 14 Nordeste 0 974.1 -- 46
2020-05-14 21:00:00 18.2 4 Sur 9 Sur 0 973.9 -- 36
2020-05-14 20:00:00 20 5 Sur 26 Sur 0 973 -- 33
2020-05-14 19:00:00 18.9 16 Sur 28 Sur 0 971.6 -- 32
2020-05-14 18:00:00 19.8 17 Sudoeste 26 Sur 0 971.9 -- 28
2020-05-14 17:00:00 21.6 4 Sudeste 15 Norte 0 971.5 -- 27
2020-05-14 16:00:00 19.9 3 Sudeste 13 Norte 0 972 -- 31
2020-05-14 15:00:00 19.1 4 Sudoeste 19 Sur 0.2 972.2 -- 38
2020-05-14 14:00:00 16.5 12 Sur 23 Sur 0 972.7 -- 43
2020-05-14 13:00:00 17.5 8 Sudoeste 33 Noroeste 0 972.7 -- 31
2020-05-14 12:00:00 17.7 19 Oeste 34 Noroeste 0 972.5 -- 33
2020-05-14 11:00:00 15.9 10 Oeste 31 Noroeste 0 971.9 -- 44
2020-05-14 10:00:00 13.3 4 Sudoeste 12 Sudoeste 0 972 -- 60
2020-05-14 09:00:00 12.6 4 Sudoeste 14 Sudoeste 0 971.2 -- 66
2020-05-14 08:00:00 11.7 6 Sudoeste 14 Oeste 0.2 970.6 -- 69
2020-05-14 07:00:00 12.3 12 Sudoeste 22 Sudoeste 0.7 970.6 -- 78
2020-05-14 06:00:00 13 8 Sudoeste 12 Sudoeste 0.3 970.1 -- 81
2020-05-14 05:00:00 13.6 4 Nordeste 10 Norte 0.1 969.5 -- 81
2020-05-14 04:00:00 13.3 0 Calma 9 Sudoeste 0.4 970 -- 82
2020-05-14 03:00:00 14 5 Sudoeste 19 Sur 0.4 970.7 -- 82
2020-05-14 02:00:00 14.5 12 Sur 20 Sur 0.1 970.8 -- 78
2020-05-14 01:00:00 15.8 0 Calma 4 Oeste 0 970.4 -- 68
2020-05-14 00:00:00 15.8 4 Oeste 11 Sur 0 969.9 -- 66
2020-05-13 23:00:00 16.4 0 Calma 10 Oeste 0 970 -- 52
2020-05-13 22:00:00 18.7 6 Sudeste 21 Este 0 969.7 -- 32
2020-05-13 21:00:00 18.3 8 Este 24 Este 0 968.8 -- 42
2020-05-13 20:00:00 20.7 9 Este 22 Sudeste 0 969.3 -- 29
2020-05-13 19:00:00 21.7 10 Este 22 Este 0 969.2 -- 27
2020-05-13 18:00:00 22 14 Sur 27 Sudoeste 0 969.3 -- 26
2020-05-13 17:00:00 22.6 5 Sur 26 Sudoeste 0 969.4 -- 26
2020-05-13 16:00:00 22.2 13 Sur 28 Sudoeste 0 970.4 -- 29
2020-05-13 15:00:00 20.6 14 Sur 27 Sudoeste 0 971.1 -- 30
2020-05-13 14:00:00 19.8 14 Sudoeste 26 Oeste 0 971.7 -- 31
2020-05-13 13:00:00 20.6 8 Sudoeste 25 Sudoeste 0 972.8 -- 28
2020-05-13 12:00:00 20.4 4 Nordeste 15 Este 0 972.6 -- 30
2020-05-13 11:00:00 19.4 8 Oeste 21 Oeste 0 972.8 -- 34
2020-05-13 10:00:00 17.7 8 Oeste 21 Oeste 0 973.1 -- 40
2020-05-13 09:00:00 14.8 7 Oeste 14 Noroeste 0 973.4 -- 51
2020-05-13 08:00:00 12.1 0 Calma 9 Oeste 0 973.5 -- 62
2020-05-13 07:00:00 11.8 0 Calma 5 Noroeste 0 973.4 -- 63
2020-05-13 06:00:00 11.6 0 Calma 11 Oeste 0 973 -- 63
2020-05-13 05:00:00 12 5 Noroeste 9 Noroeste 0 973.2 -- 59
2020-05-13 04:00:00 12.7 9 Oeste 17 Oeste 0 973.5 -- 55
2020-05-13 03:00:00 13.2 8 Oeste 17 Oeste 0 973.3 -- 53
2020-05-13 02:00:00 14 12 Oeste 25 Sudoeste 0 973.5 -- 48
2020-05-13 01:00:00 14.1 9 Noroeste 16 Oeste 0 973.6 -- 47
2020-05-13 00:00:00 14.1 7 Oeste 30 Noroeste 0 973.6 -- 46
2020-05-12 23:00:00 15.3 13 Noroeste 33 Norte 0 973.5 -- 42
2020-05-12 22:00:00 16.1 22 Noroeste 44 Norte 0 972.7 -- 43
2020-05-12 21:00:00 18.5 4 Sur 13 Sudoeste 0 971.4 -- 40
2020-05-12 20:00:00 19.6 0 Calma 14 Oeste 0 971.4 -- 38
2020-05-12 19:00:00 20.4 4 Sur 17 Noroeste 0 971.8 -- 36
2020-05-12 18:00:00 18.7 10 Oeste 29 Oeste 0 972.1 -- 40
2020-05-12 17:00:00 17 21 Oeste 45 Oeste 0.1 972.2 -- 45
2020-05-12 16:00:00 17.3 21 Oeste 35 Oeste 0 972.4 -- 50
2020-05-12 15:00:00 17.4 16 Oeste 33 Oeste 0.2 972.9 -- 67
2020-05-12 14:00:00 19.2 3 Sudeste 30 Este 0.1 973.1 -- 47
2020-05-12 13:00:00 21.5 7 Oeste 20 Sudeste 0 972.3 -- 38
2020-05-12 12:00:00 21.4 5 Sudeste 20 Este 0 973.7 -- 36
2020-05-12 11:00:00 20.3 4 Sudeste 13 Este 0 973.4 -- 42
2020-05-12 10:00:00 18.6 3 Oeste 18 Oeste 0 974.4 -- 49
2020-05-12 09:00:00 19 0 Calma 4 Este 0 973.4 -- 51
2020-05-12 08:00:00 17.2 0 Calma 10 Oeste 0 974.1 -- 58
2020-05-12 07:00:00 16.6 0 Calma 6 Este 0 973.9 -- 59
2020-05-12 06:00:00 17.1 4 Sudoeste 12 Sudeste 0 974.7 -- 55
2020-05-12 05:00:00 17.7 3 Sur 19 Noroeste 0 975.2 -- 52
2020-05-12 04:00:00 17.3 4 Noroeste 14 Oeste 0 975.6 -- 53
2020-05-12 03:00:00 18 2 Norte 11 Oeste 0 975.6 -- 48
2020-05-12 02:00:00 17.2 3 Oeste 11 Noroeste 0 976.1 -- 47
2020-05-12 01:00:00 17.9 6 Oeste 8 Oeste 0 976.3 -- 42
2020-05-12 00:00:00 19.5 3 Oeste 7 Oeste 0 976.7 -- 37
2020-05-11 23:00:00 20.7 3 Sudoeste 14 Norte 0 976.6 -- 32
2020-05-11 22:00:00 22.3 7 Norte 18 Norte 0 975.7 -- 29
2020-05-11 21:00:00 23.4 4 Nordeste 16 Noroeste 0 974.8 -- 27
2020-05-11 20:00:00 24.2 6 Sudoeste 22 Noroeste 0 974.2 -- 26
2020-05-11 19:00:00 25.4 6 Sur 24 Sur 0 974.1 -- 26
2020-05-11 18:00:00 24.5 12 Sur 30 Sudoeste 0 974 -- 27
2020-05-11 17:00:00 24.6 17 Sudoeste 36 Sudoeste 0 973.9 -- 27
2020-05-11 16:00:00 25.2 8 Sur 32 Sudoeste 0 974.3 -- 26
2020-05-11 15:00:00 24 14 Sur 30 Sur 0 974.6 -- 28
2020-05-11 14:00:00 24.2 10 Sur 34 Oeste 0 975.1 -- 25
2020-05-11 13:00:00 23.1 9 Oeste 31 Oeste 0 975.3 -- 25
2020-05-11 12:00:00 23.1 10 Oeste 27 Oeste 0 975.7 -- 27
2020-05-11 11:00:00 20.2 10 Oeste 25 Noroeste 0 975.7 -- 32
2020-05-11 10:00:00 18.7 11 Oeste 24 Oeste 0 975.8 -- 37
2020-05-11 09:00:00 18 10 Noroeste 19 Noroeste 0 975.6 -- 40
2020-05-11 08:00:00 16 5 Noroeste 12 Norte 0 976.1 -- 46
2020-05-11 07:00:00 15.1 4 Sur 26 Noroeste 0 975.9 -- 48
2020-05-11 06:00:00 15.4 10 Noroeste 23 Noroeste 0 975.6 -- 49
2020-05-11 05:00:00 15.6 9 Noroeste 35 Noroeste 0 975.5 -- 51
2020-05-11 04:00:00 16.2 17 Noroeste 34 Noroeste 0 975.2 -- 47
2020-05-11 03:00:00 15.9 5 Noroeste 12 Noroeste 0 975.1 -- 47
2020-05-11 02:00:00 16.1 8 Sudoeste 24 Noroeste 0 975.5 -- 48
2020-05-11 01:00:00 16.8 20 Noroeste 40 Noroeste 0 975.3 -- 46
2020-05-11 00:00:00 16.2 12 Oeste 28 Noroeste 0 975.8 -- 47
2020-05-10 23:00:00 17.2 13 Oeste 30 Oeste 0 976 -- 43
2020-05-10 22:00:00 17 8 Oeste 37 Noroeste 0 975.5 -- 40
2020-05-10 21:00:00 17.9 17 Oeste 30 Oeste 0 974.5 -- 34
2020-05-10 20:00:00 19.3 21 Noroeste 66 Noroeste 0 974.2 -- 31
2020-05-10 19:00:00 22 21 Oeste 49 Oeste 0 972.8 -- 22
2020-05-10 18:00:00 21.9 30 Oeste 65 Noroeste 0 972.7 -- 21
2020-05-10 17:00:00 22.2 30 Noroeste 59 Noroeste 0 972.3 -- 21
2020-05-10 16:00:00 21.7 24 Noroeste 53 Noroeste 0 972.5 -- 23
2020-05-10 15:00:00 23 19 Noroeste 43 Noroeste 0 972.1 -- 21
2020-05-10 14:00:00 21 25 Noroeste 55 Oeste 0 972.8 -- 26
2020-05-10 13:00:00 20.9 25 Noroeste 48 Oeste 0 973.4 -- 25
2020-05-10 12:00:00 20.2 27 Noroeste 53 Oeste 0 973.9 -- 27
2020-05-10 11:00:00 18.8 26 Noroeste 49 Oeste 0 973.6 -- 32
2020-05-10 10:00:00 17.7 26 Oeste 47 Oeste 0 973.5 -- 33
2020-05-10 09:00:00 17.3 16 Noroeste 40 Oeste 0 972.9 -- 36
2020-05-10 08:00:00 16.4 15 Oeste 28 Sudoeste 0 972.7 -- 44
2020-05-10 07:00:00 16.7 18 Oeste 39 Noroeste 0 972.4 -- 43
2020-05-10 06:00:00 17.3 7 Oeste 17 Oeste 0 972.2 -- 47
2020-05-10 05:00:00 16.2 0 Calma 7 Oeste 0 972.6 -- 65
2020-05-10 04:00:00 16 0 Calma 4 Oeste 0 972.6 -- 73
2020-05-10 03:00:00 16.1 0 Calma 4 Sudeste 0 973.2 -- 71
2020-05-10 02:00:00 17 0 Calma 7 Sur 0 973.6 -- 68
2020-05-10 01:00:00 17.1 5 Este 11 Este 0 974 -- 71
2020-05-10 00:00:00 17.4 4 Este 15 Nordeste 0 974.1 -- 69
2020-05-09 23:00:00 18.5 4 Este 12 Este 0 973.8 -- 55
2020-05-09 22:00:00 19.2 4 Nordeste 14 Sudeste 0 973.4 -- 50
2020-05-09 21:00:00 19.7 7 Este 19 Este 0 972.8 -- 47
2020-05-09 20:00:00 20.5 6 Este 24 Nordeste 0 972.5 -- 46
2020-05-09 19:00:00 21 15 Este 28 Este 0 973 -- 47
2020-05-09 18:00:00 22.5 11 Este 25 Este 0 973.4 -- 41
2020-05-09 17:00:00 23.3 9 Sur 21 Sur 0 974.3 -- 43
2020-05-09 16:00:00 24.2 4 Sudeste 26 Este 0 975 -- 44
2020-05-09 15:00:00 21.8 14 Sur 26 Sudoeste 0 976.1 -- 49
2020-05-09 14:00:00 22.1 10 Sur 22 Sudoeste 0 976.5 -- 49
2020-05-09 13:00:00 21.9 7 Sudoeste 19 Sudoeste 0 977.2 -- 56
2020-05-09 12:00:00 20.5 11 Sur 19 Sudoeste 0 978.3 -- 61
2020-05-09 11:00:00 22.3 5 Este 20 Este 0 977.9 -- 50
2020-05-09 10:00:00 20.2 3 Este 10 Sudeste 0 977.6 -- 57
2020-05-09 09:00:00 18.4 3 Nordeste 9 Este 0 977.5 -- 69
2020-05-09 08:00:00 15.3 0 Calma 6 Oeste 0 977.7 -- 82
2020-05-09 07:00:00 15.5 0 Calma 5 Noroeste 0 977.9 -- 82
2020-05-09 06:00:00 15.5 0 Calma 5 Nordeste 0 977.8 -- 81
2020-05-09 05:00:00 16.1 2 Nordeste 7 Nordeste 0 978.3 -- 81
2020-05-09 04:00:00 16.4 4 Sur 8 Sur 0 979.1 -- 80
2020-05-09 03:00:00 17 4 Nordeste 15 Nordeste 0 979.2 -- 78
2020-05-09 02:00:00 17.4 0 Calma 13 Sudoeste 0 980.6 -- 75
2020-05-09 01:00:00 16.8 6 Sur 24 Sudoeste 0 981.4 -- 81
2020-05-09 00:00:00 16.8 5 Oeste 9 Noroeste 0 980.6 -- 83
2020-05-08 23:00:00 16.9 2 Noroeste 14 Sur 0 980.7 -- 82
2020-05-08 22:00:00 17.2 9 Sur 22 Sudoeste 0 980.6 -- 81
2020-05-08 21:00:00 17.4 14 Sur 30 Sur 0 980.2 -- 81
2020-05-08 20:00:00 18.5 15 Sur 26 Sur 0 978.6 -- 74
2020-05-08 19:00:00 20.2 14 Sudoeste 24 Sudoeste 0 978.2 -- 63
2020-05-08 18:00:00 21.3 15 Sudoeste 25 Sur 0 978.2 -- 59
2020-05-08 17:00:00 22.2 14 Sur 25 Sudoeste 0 978.4 -- 55
2020-05-08 16:00:00 21.8 14 Sur 24 Sudoeste 0 979.1 -- 58
2020-05-08 15:00:00 21.3 14 Sudoeste 28 Sur 0 979.5 -- 62
2020-05-08 14:00:00 20.5 19 Sur 30 Sur 0 979.9 -- 68
2020-05-08 13:00:00 25.1 0 Calma 14 Este 0 979.6 -- 34
2020-05-08 12:00:00 22.4 5 Oeste 14 Sudoeste 0 980.2 -- 43
2020-05-08 11:00:00 20.1 6 Sur 18 Sudoeste 0 980.6 -- 53
2020-05-08 10:00:00 20 6 Sur 14 Sur 0 981.1 -- 44
2020-05-08 09:00:00 19 3 Este 10 Nordeste 0 980.4 -- 48
2020-05-08 08:00:00 16.6 0 Calma 7 Nordeste 0 980.9 -- 58
2020-05-08 07:00:00 15.8 3 Este 10 Nordeste 0 980.1 -- 58
2020-05-08 06:00:00 16.4 2 Nordeste 10 Norte 0 980 -- 53
2020-05-08 05:00:00 15.9 0 Calma 12 Sudeste 0 981.1 -- 53
2020-05-08 04:00:00 16.7 2 Sudoeste 10 Oeste 0 982 -- 49
2020-05-08 03:00:00 17.1 0 Calma 7 Oeste 0 981.3 -- 48
2020-05-08 02:00:00 17.6 0 Calma 7 Oeste 0 981.3 -- 46
2020-05-08 01:00:00 17.4 4 Noroeste 8 Noroeste 0 982.5 -- 43
2020-05-08 00:00:00 19.6 3 Nordeste 8 Nordeste 0 982.5 -- 37
2020-05-07 23:00:00 20 3 Este 12 Este 0 982.2 -- 36
2020-05-07 22:00:00 21.2 4 Este 23 Sudeste 0 981.8 -- 31
2020-05-07 21:00:00 22.2 8 Este 23 Sudeste 0 981.3 -- 29
2020-05-07 20:00:00 23.6 9 Este 29 Este 0 981 -- 26
2020-05-07 19:00:00 24.4 15 Este 31 Sudeste 0 981 -- 24
2020-05-07 18:00:00 26 11 Este 31 Este 0 980.7 -- 23
2020-05-07 17:00:00 26.1 9 Este 29 Sudeste 0 980.1 -- 24
2020-05-07 16:00:00 25.5 13 Este 30 Sudeste 0 980.3 -- 22
2020-05-07 15:00:00 27.1 11 Este 33 Nordeste 0 980.7 -- 23
2020-05-07 14:00:00 26.4 11 Este 35 Este 0 980.9 -- 29
2020-05-07 13:00:00 25.5 13 Este 30 Este 0 981.7 -- 30
2020-05-07 12:00:00 24 10 Este 37 Este 0 981.9 -- 38
2020-05-07 11:00:00 23.1 9 Este 24 Nordeste 0 982.1 -- 39
2020-05-07 10:00:00 21.6 8 Nordeste 27 Nordeste 0 981.9 -- 39
2020-05-07 09:00:00 19.2 9 Este 26 Este 0 981.9 -- 50
2020-05-07 08:00:00 17 4 Este 18 Nordeste 0 982.1 -- 71
2020-05-07 07:00:00 16.8 4 Este 22 Sudeste 0 981.7 -- 68
2020-05-07 06:00:00 17.6 5 Este 18 Sudeste 0 981.3 -- 58
2020-05-07 05:00:00 17.4 2 Norte 11 Este 0 981.4 -- 62
2020-05-07 04:00:00 18.8 8 Este 21 Nordeste 0 981.3 -- 48
2020-05-07 03:00:00 18.8 6 Este 15 Este 0 981.8 -- 53
2020-05-07 02:00:00 18.8 4 Este 8 Nordeste 0 982.4 -- 60
2020-05-07 01:00:00 18.7 0 Calma 11 Norte 0 982.5 -- 65
2020-05-07 00:00:00 18.4 0 Calma 5 Noroeste 0 982.4 -- 72
2020-05-06 23:00:00 18.5 0 Calma 6 Sudoeste 0 982.4 -- 71
2020-05-06 22:00:00 19.1 4 Sudoeste 11 Sur 0 981.9 -- 67
2020-05-06 21:00:00 20.7 7 Sudoeste 13 Sur 0 981.1 -- 59
2020-05-06 20:00:00 22.2 8 Sudoeste 18 Sur 0 980.4 -- 51
2020-05-06 19:00:00 22.3 12 Sur 23 Sur 0 980.2 -- 51
2020-05-06 18:00:00 23.4 13 Sur 23 Sudoeste 0 979.8 -- 44
2020-05-06 17:00:00 24.5 12 Sudoeste 24 Sur 0 979.8 -- 43
2020-05-06 16:00:00 24.2 14 Sur 26 Sur 0 980.2 -- 44
2020-05-06 15:00:00 24.8 16 Sudoeste 30 Oeste 0 980.2 -- 45
2020-05-06 14:00:00 25.3 16 Sudoeste 27 Sudoeste 0 980.3 -- 37
2020-05-06 13:00:00 24.7 13 Sudoeste 24 Sudoeste 0 980.6 -- 39
2020-05-06 12:00:00 25 13 Sudoeste 22 Sudoeste 0 981 -- 38
2020-05-06 11:00:00 24.7 8 Sur 14 Sur 0 980.8 -- 33
2020-05-06 10:00:00 23.2 3 Sur 6 Sur 0 980.1 -- 40
2020-05-06 09:00:00 20.8 0 Calma 4 Este 0 979.8 -- 50
2020-05-06 08:00:00 17.2 0 Calma 3 Noroeste 0 980.5 -- 68
2020-05-06 07:00:00 16.1 0 Calma 4 Sudoeste 0 980.2 -- 75
2020-05-06 06:00:00 16.1 2 Noroeste 7 Noroeste 0 980.4 -- 76
2020-05-06 05:00:00 16.6 0 Calma 3 Sudeste 0 980.4 -- 74
2020-05-06 04:00:00 16.7 0 Calma 4 Sudoeste 0 980.4 -- 74
2020-05-06 03:00:00 17.7 0 Calma 5 Noroeste 0 980.3 -- 71
2020-05-06 02:00:00 18.3 0 Calma 6 Nordeste 0 980.6 -- 68
2020-05-06 01:00:00 18.9 0 Calma 5 Sudoeste 0 980.7 -- 65
2020-05-06 00:00:00 19.5 0 Calma 7 Sudoeste 0 980.4 -- 61
2020-05-05 23:00:00 20 0 Calma 6 Sudoeste 0 980.4 -- 57
2020-05-05 22:00:00 20.8 0 Calma 8 Sudoeste 0 979.7 -- 55
2020-05-05 21:00:00 22.1 4 Sudoeste 12 Sudoeste 0 978.8 -- 48
2020-05-05 20:00:00 23.2 10 Sudoeste 17 Sudoeste 0 978.2 -- 42
2020-05-05 19:00:00 24.8 10 Sudoeste 19 Sudoeste 0 977.9 -- 37
2020-05-05 18:00:00 25.5 12 Sudoeste 22 Sudoeste 0 977.6 -- 35
2020-05-05 17:00:00 26.5 13 Sudoeste 24 Sudoeste 0 977.6 -- 33
2020-05-05 16:00:00 27.7 13 Sudoeste 23 Sudoeste 0 977.8 -- 33
2020-05-05 15:00:00 26.2 13 Sur 23 Sur 0 978.6 -- 36
2020-05-05 14:00:00 26.6 11 Sur 20 Sudoeste 0 978.6 -- 33
2020-05-05 13:00:00 27.2 9 Sudoeste 20 Sudoeste 0 979.3 -- 33
2020-05-05 12:00:00 26 4 Sudoeste 11 Sudoeste 0 980 -- 31
2020-05-05 11:00:00 25.6 2 Sudoeste 9 Sudoeste 0 979.6 -- 39
2020-05-05 10:00:00 23.2 2 Este 9 Sudeste 0 979.1 -- 45
2020-05-05 09:00:00 20.5 4 Sudeste 7 Sudeste 0 979.1 -- 49
2020-05-05 08:00:00 17.7 0 Calma 5 Noroeste 0 979.2 -- 59
2020-05-05 07:00:00 17.1 0 Calma 6 Sur 0 979.1 -- 59
2020-05-05 06:00:00 16.6 0 Calma 5 Noroeste 0 978.7 -- 60
2020-05-05 05:00:00 17.2 2 Noroeste 6 Norte 0 979.2 -- 59
2020-05-05 04:00:00 18 2 Este 7 Este 0 979.1 -- 56
2020-05-05 03:00:00 18.1 6 Noroeste 8 Noroeste 0 979.9 -- 56
2020-05-05 02:00:00 18.4 3 Noroeste 7 Este 0 979.9 -- 56
2020-05-05 01:00:00 19.9 0 Calma 6 Sudeste 0 979.9 -- 51
2020-05-05 00:00:00 20.7 0 Calma 6 Noroeste 0 980.2 -- 47
2020-05-04 23:00:00 21 3 Oeste 6 Oeste 0 980 -- 41
2020-05-04 22:00:00 22.7 4 Noroeste 12 Sudoeste 0 979.3 -- 37
2020-05-04 21:00:00 24 8 Sudoeste 20 Sudoeste 0 978.7 -- 32
2020-05-04 20:00:00 26.9 12 Sudoeste 17 Sudoeste 0 977.9 -- 23
2020-05-04 19:00:00 30.2 6 Sudeste 20 Sudeste 0 977.9 -- 15
2020-05-04 18:00:00 30.1 7 Este 29 Sudeste 0 978 -- 15
2020-05-04 17:00:00 30.7 7 Este 24 Sudeste 0 978.2 -- 15
2020-05-04 16:00:00 30 10 Este 24 Sudeste 0 979.2 -- 16
2020-05-04 15:00:00 30 9 Sudeste 27 Este 0 979.9 -- 17
2020-05-04 14:00:00 30.1 11 Sudeste 24 Sudeste 0 979.7 -- 18
2020-05-04 13:00:00 29.4 9 Este 23 Sudeste 0 980.3 -- 20
2020-05-04 12:00:00 28.9 6 Este 18 Este 0 980.4 -- 22
2020-05-04 11:00:00 27 0 Calma 6 Este 0 980.7 -- 28
2020-05-04 10:00:00 24.3 2 Noroeste 5 Noroeste 0 980.3 -- 35
2020-05-04 09:00:00 20.6 0 Calma 5 Noroeste 0 980.6 -- 42
2020-05-04 08:00:00 16.2 0 Calma 7 Nordeste 0 981 -- 57
2020-05-04 07:00:00 15.4 0 Calma 4 Noroeste 0 981 -- 53
2020-05-04 06:00:00 15.7 0 Calma 5 Noroeste 0 980.9 -- 56
2020-05-04 05:00:00 15.9 0 Calma 3 Nordeste 0 980.9 -- 57
2020-05-04 04:00:00 16.8 0 Calma -- -- 0 980.8 -- 53
2020-05-04 03:00:00 16.4 0 Calma 0 Calma 0 981.1 -- 56
2020-05-04 02:00:00 17.3 0 Calma 4 Sudeste 0 981.8 -- 57
2020-05-04 01:00:00 18.4 0 Calma 5 Noroeste 0 982.2 -- 52
2020-05-04 00:00:00 19.5 2 Noroeste 4 Noroeste 0 982.4 -- 48
2020-05-03 23:00:00 20.5 0 Calma 5 Nordeste 0 982.3 -- 44
2020-05-03 22:00:00 21.8 0 Calma 8 Sudoeste 0 981.9 -- 38
2020-05-03 21:00:00 23.5 5 Sudoeste 11 Sur 0 981.3 -- 32
2020-05-03 20:00:00 26.1 6 Sudoeste 14 Oeste 0 980.7 -- 26
2020-05-03 19:00:00 27.4 6 Sur 18 Sudoeste 0 980.8 -- 25
2020-05-03 18:00:00 27.8 10 Sudoeste 26 Sudoeste 0 981 -- 25
2020-05-03 17:00:00 27.4 15 Sudoeste 23 Sudoeste 0 981.3 -- 24
2020-05-03 16:00:00 28.1 10 Sudoeste 25 Sudoeste 0 981.5 -- 24
2020-05-03 15:00:00 27.7 9 Norte 26 Sudoeste 0 981.8 -- 29
2020-05-03 14:00:00 28.4 15 Sudoeste 24 Oeste 0 982 -- 28
2020-05-03 13:00:00 28.7 9 Sudoeste 19 Sudoeste 0 983.1 -- 23
2020-05-03 12:00:00 28.8 5 Este 16 Este 0 983.4 -- 24
2020-05-03 11:00:00 26.7 4 Este 9 Este 0 983.2 -- 29
2020-05-03 10:00:00 26.1 0 Calma 2 Sudeste 0 983.1 -- 35
2020-05-03 09:00:00 19.7 0 Calma 3 Este 0 983.2 -- 52
2020-05-03 08:00:00 18 0 Calma 4 Este 0 983.3 -- 59
2020-05-03 07:00:00 15.5 0 Calma 3 Noroeste 0 982.9 -- 63
2020-05-03 06:00:00 15.6 0 Calma 3 Oeste 0 982.9 -- 60
2020-05-03 05:00:00 16.4 0 Calma 0 Calma 0 982.9 -- 61
2020-05-03 04:00:00 16.6 0 Calma 6 Nordeste 0 983 -- 65
2020-05-03 03:00:00 17.2 2 Nordeste 5 Nordeste 0 983.6 -- 68
2020-05-03 02:00:00 18.7 0 Calma 2 Noroeste 0 984.2 -- 62
2020-05-03 01:00:00 18.8 0 Calma 4 Sudoeste 0 984.5 -- 61
2020-05-03 00:00:00 19.8 0 Calma 5 Noroeste 0 984.6 -- 57